createdAt,value
2023-02-23T00:04:47.989Z,96.77
2023-02-23T00:09:50.876Z,96.87
2023-02-23T00:14:52.464Z,96.82
2023-02-23T00:19:55.157Z,96.95
2023-02-23T00:24:57.434Z,97.14
2023-02-23T00:29:59.051Z,96.98
2023-02-23T00:35:00.622Z,97.16
2023-02-23T00:40:02.175Z,97.17
2023-02-23T00:45:11.277Z,97.32
2023-02-23T00:50:15.063Z,97.28
2023-02-23T00:55:16.610Z,97.37
2023-02-23T01:00:20.995Z,97.33
2023-02-23T01:05:22.855Z,97.19
2023-02-23T01:10:24.428Z,97.33
2023-02-23T01:15:27.569Z,97.57
2023-02-23T01:20:29.113Z,97.35
2023-02-23T01:25:30.785Z,97.20
2023-02-23T01:30:35.033Z,97.42
2023-02-23T01:35:36.711Z,97.60
2023-02-23T01:40:39.462Z,97.47
2023-02-23T01:45:42.742Z,97.41
2023-02-23T01:50:50.554Z,97.33
2023-02-23T01:55:58.594Z,97.45
2023-02-23T02:01:02.810Z,97.50
2023-02-23T02:06:07.135Z,97.41
2023-02-23T02:11:25.801Z,97.51
2023-02-23T02:16:46.212Z,97.26
2023-02-23T02:22:21.612Z,97.49
2023-02-23T02:27:43.560Z,97.65
2023-02-23T02:33:14.550Z,97.83
2023-02-23T02:38:28.702Z,97.66
2023-02-23T02:43:57.616Z,97.92
2023-02-23T02:49:06.917Z,97.87
2023-02-23T02:54:25.404Z,98.01
2023-02-23T02:59:46.166Z,97.92
2023-02-23T03:05:06.424Z,97.86
2023-02-23T03:10:53.398Z,98.24
2023-02-23T03:16:24.847Z,98.16
2023-02-23T03:21:55.215Z,98.30
2023-02-23T03:27:24.007Z,98.42
2023-02-23T03:32:48.747Z,98.54
2023-02-23T03:38:33.138Z,98.58
2023-02-23T03:43:59.119Z,98.59
2023-02-23T03:49:22.353Z,98.48
2023-02-23T03:54:49.697Z,98.55
2023-02-23T04:00:15.231Z,98.67
2023-02-23T04:05:38.829Z,98.68
2023-02-23T04:11:07.870Z,98.92
2023-02-23T04:16:11.248Z,98.85
2023-02-23T04:21:12.954Z,98.79
2023-02-23T04:26:14.470Z,98.79
2023-02-23T04:31:18.769Z,98.99
2023-02-23T04:36:20.654Z,99.16
2023-02-23T04:41:22.678Z,99.18
2023-02-23T04:46:24.261Z,99.01
2023-02-23T04:51:30.702Z,99.31
2023-02-23T04:56:32.614Z,99.34
2023-02-23T05:01:34.337Z,99.56
2023-02-23T05:06:36.115Z,99.08
2023-02-23T05:11:38.060Z,99.19
2023-02-23T05:16:39.857Z,99.05
2023-02-23T05:21:42.003Z,99.14
2023-02-23T05:26:43.993Z,99.05
2023-02-23T05:31:46.231Z,99.29
2023-02-23T05:36:47.856Z,99.20
2023-02-23T05:41:49.683Z,99.08
2023-02-23T05:46:51.341Z,99.04
2023-02-23T05:51:52.842Z,99.33
2023-02-23T05:56:54.391Z,99.53
2023-02-23T06:01:56.265Z,99.27
2023-02-23T06:06:58.893Z,99.21
2023-02-23T06:12:00.878Z,99.20
2023-02-23T06:17:02.516Z,99.37
2023-02-23T06:22:04.208Z,99.10
2023-02-23T06:27:05.671Z,99.08
2023-02-23T06:32:07.700Z,99.24
2023-02-23T06:37:09.680Z,99.34
2023-02-23T06:42:11.459Z,99.33
2023-02-23T06:47:13.015Z,99.56
2023-02-23T06:52:15.131Z,99.22
2023-02-23T06:57:16.963Z,99.36
2023-02-23T07:02:19.149Z,99.47
2023-02-23T07:07:20.922Z,99.38
2023-02-23T07:12:22.501Z,99.32
2023-02-23T07:17:24.037Z,99.25
2023-02-23T07:22:29.355Z,99.34
2023-02-23T07:27:30.879Z,99.53
2023-02-23T07:32:32.762Z,99.64
2023-02-23T07:37:34.380Z,99.66
2023-02-23T07:42:36.104Z,99.65
2023-02-23T07:47:39.380Z,99.42
2023-02-23T07:52:42.449Z,99.53
2023-02-23T07:57:44.496Z,99.46
2023-02-23T08:02:46.010Z,99.65
2023-02-23T08:07:47.567Z,99.42
2023-02-23T08:12:49.185Z,99.95
2023-02-23T08:17:50.887Z,99.84
2023-02-23T08:22:56.795Z,99.70
2023-02-23T08:28:04.810Z,99.83
2023-02-23T08:33:07.203Z,99.58
2023-02-23T08:38:08.827Z,99.76
2023-02-23T08:43:10.635Z,99.71
2023-02-23T08:48:12.282Z,99.60
2023-02-23T08:53:13.836Z,99.50
2023-02-23T08:58:15.361Z,100.00
2023-02-23T09:03:17.143Z,99.79
2023-02-23T09:08:18.999Z,99.71
2023-02-23T09:13:20.625Z,99.67
2023-02-23T09:18:24.748Z,99.67
2023-02-23T09:23:29.671Z,99.59
2023-02-23T09:28:33.544Z,99.75
2023-02-23T09:33:35.752Z,99.70
2023-02-23T09:38:37.330Z,99.47
2023-02-23T09:43:50.206Z,99.66
2023-02-23T09:48:52.917Z,99.61
2023-02-23T09:53:57.553Z,99.46
2023-02-23T09:59:00.741Z,99.23
2023-02-23T10:04:17.517Z,99.39
2023-02-23T10:09:37.341Z,99.53
2023-02-23T10:15:04.060Z,99.42
2023-02-23T10:20:34.296Z,99.48
2023-02-23T10:25:42.113Z,99.44
2023-02-23T10:30:44.702Z,99.41
2023-02-23T10:35:47.196Z,99.38
2023-02-23T10:40:55.872Z,99.24
2023-02-23T10:46:00.577Z,99.43
2023-02-23T10:51:05.892Z,99.14
2023-02-23T10:56:16.940Z,98.82
2023-02-23T11:01:49.133Z,99.10
2023-02-23T11:07:31.163Z,98.97
2023-02-23T11:12:43.308Z,98.95
2023-02-23T11:17:45.091Z,98.76
2023-02-23T11:22:47.235Z,98.84
2023-02-23T11:27:51.754Z,98.75
2023-02-23T11:32:57.745Z,98.71
2023-02-23T11:37:59.579Z,98.82
2023-02-23T11:43:08.523Z,98.81
2023-02-23T11:48:38.686Z,99.04
2023-02-23T11:53:46.436Z,98.54
2023-02-23T11:58:54.466Z,99.00
2023-02-23T12:03:57.607Z,98.82
2023-02-23T12:09:05.045Z,99.01
2023-02-23T12:14:25.540Z,98.84
2023-02-23T12:19:33.292Z,98.76
2023-02-23T12:24:44.552Z,98.74
2023-02-23T12:30:09.402Z,98.60
2023-02-23T12:35:20.231Z,98.52
2023-02-23T12:40:28.972Z,98.47
2023-02-23T12:45:52.711Z,98.63
2023-02-23T12:50:58.594Z,98.53
2023-02-23T12:56:35.931Z,98.65
2023-02-23T13:01:59.607Z,98.47
2023-02-23T13:07:26.918Z,98.51
2023-02-23T13:12:53.983Z,98.66
2023-02-23T13:18:19.125Z,98.54
2023-02-23T13:23:32.927Z,98.37
2023-02-23T13:28:41.822Z,98.18
2023-02-23T13:33:46.160Z,97.93
2023-02-23T13:39:18.628Z,97.77
2023-02-23T13:44:46.368Z,97.08
2023-02-23T13:50:05.257Z,96.65
2023-02-23T13:55:25.838Z,95.98
2023-02-23T14:00:27.541Z,95.34
2023-02-23T14:05:29.967Z,94.89
2023-02-23T14:10:50.934Z,94.40
2023-02-23T14:16:17.903Z,93.87
2023-02-23T14:21:28.899Z,93.29
2023-02-23T14:26:30.337Z,92.92
2023-02-23T14:31:32.038Z,92.49
2023-02-23T14:36:37.638Z,92.32
2023-02-23T14:41:54.128Z,92.01
2023-02-23T14:47:13.148Z,91.70
2023-02-23T14:52:22.495Z,91.71
2023-02-23T14:57:26.017Z,91.35
2023-02-23T15:02:30.690Z,91.32
2023-02-23T15:07:39.820Z,91.28
2023-02-23T15:12:41.334Z,91.28
2023-02-23T15:17:46.552Z,91.66
2023-02-23T15:22:53.635Z,91.71
2023-02-23T15:27:55.926Z,92.01
2023-02-23T15:33:11.908Z,92.46
2023-02-23T15:38:41.866Z,93.22
2023-02-23T15:43:43.368Z,93.60
2023-02-23T15:48:48.370Z,94.18
2023-02-23T15:53:50.207Z,94.48
2023-02-23T15:58:57.211Z,94.83
2023-02-23T16:04:07.102Z,95.07
2023-02-23T16:09:21.702Z,95.53
2023-02-23T16:14:24.698Z,95.69
2023-02-23T16:19:29.374Z,95.72
2023-02-23T16:24:30.907Z,95.55
2023-02-23T16:29:33.587Z,95.39
2023-02-23T16:34:44.424Z,95.15
2023-02-23T16:39:46.314Z,95.15
2023-02-23T16:44:47.828Z,95.03
2023-02-23T16:49:50.285Z,94.80
2023-02-23T16:54:54.603Z,94.58
2023-02-23T16:59:57.533Z,94.52
2023-02-23T17:04:59.144Z,94.28
2023-02-23T17:10:00.670Z,94.07
2023-02-23T17:15:04.175Z,93.83
2023-02-23T17:20:17.529Z,93.69
2023-02-23T17:25:19.215Z,93.00
2023-02-23T17:30:21.364Z,92.38
2023-02-23T17:35:23.540Z,92.16
2023-02-23T17:40:26.496Z,91.65
2023-02-23T17:45:28.647Z,91.06
2023-02-23T17:50:30.221Z,90.28
2023-02-23T17:55:31.770Z,90.31
2023-02-23T18:00:37.695Z,89.78
2023-02-23T18:05:39.287Z,89.34
2023-02-23T18:10:40.804Z,89.68
2023-02-23T18:15:42.667Z,89.05
2023-02-23T18:20:59.061Z,89.33
2023-02-23T18:26:08.629Z,89.30
2023-02-23T18:31:19.589Z,89.34
2023-02-23T18:36:29.788Z,89.38
2023-02-23T18:41:31.894Z,89.43
2023-02-23T18:46:34.911Z,89.51
2023-02-23T18:51:36.416Z,89.52
2023-02-23T18:56:38.513Z,89.66
2023-02-23T19:01:40.290Z,89.81
2023-02-23T19:06:44.083Z,89.74
2023-02-23T19:11:45.631Z,89.78
2023-02-23T19:16:47.254Z,89.91
2023-02-23T19:21:48.821Z,90.25
2023-02-23T19:26:50.478Z,89.93
2023-02-23T19:31:51.947Z,90.53
2023-02-23T19:36:54.041Z,90.63
2023-02-23T19:41:55.813Z,90.86
2023-02-23T19:46:57.534Z,91.20
2023-02-23T19:52:00.257Z,91.35
2023-02-23T19:57:01.747Z,91.39
2023-02-23T20:02:03.382Z,91.59
2023-02-23T20:07:04.910Z,91.66
2023-02-23T20:12:06.593Z,91.79
2023-02-23T20:17:09.015Z,91.71
2023-02-23T20:22:10.516Z,92.19
2023-02-23T20:27:12.203Z,91.88
2023-02-23T20:32:13.901Z,92.62
2023-02-23T20:37:15.600Z,92.29
2023-02-23T20:42:17.136Z,92.45
2023-02-23T20:47:18.622Z,92.68
2023-02-23T20:52:20.246Z,92.67
2023-02-23T20:57:21.707Z,93.09
2023-02-23T21:02:23.297Z,92.82
2023-02-23T21:07:26.430Z,92.62
2023-02-23T21:12:28.059Z,92.78
2023-02-23T21:17:29.637Z,92.69
2023-02-23T21:22:31.606Z,92.61
2023-02-23T21:27:33.124Z,92.55
2023-02-23T21:32:36.966Z,92.10
2023-02-23T21:37:39.951Z,92.07
2023-02-23T21:42:42.946Z,91.93
2023-02-23T21:47:45.503Z,91.57
2023-02-23T21:52:48.531Z,91.37
2023-02-23T21:57:51.157Z,91.16
2023-02-23T22:02:52.793Z,90.61
2023-02-23T22:07:55.475Z,90.68
2023-02-23T22:12:57.092Z,90.11
2023-02-23T22:17:58.721Z,90.11
2023-02-23T22:23:00.193Z,89.69
2023-02-23T22:28:01.837Z,89.93
2023-02-23T22:33:03.478Z,89.76
2023-02-23T22:38:05.097Z,89.60
2023-02-23T22:43:08.958Z,89.69
2023-02-23T22:48:10.921Z,89.67
2023-02-23T22:53:12.435Z,89.34
2023-02-23T22:58:15.113Z,89.24
2023-02-23T23:03:16.729Z,88.79
2023-02-23T23:08:18.324Z,89.46
2023-02-23T23:13:19.891Z,89.18
2023-02-23T23:18:24.294Z,88.91
2023-02-23T23:23:25.967Z,88.77
2023-02-23T23:28:28.498Z,88.33
2023-02-23T23:33:30.477Z,88.30
2023-02-23T23:38:32.846Z,88.08
2023-02-23T23:43:37.079Z,88.06
2023-02-23T23:48:39.280Z,87.92
2023-02-23T23:53:40.764Z,87.82
2023-02-23T23:58:42.249Z,87.71
